sensor_id;sensor_type;location;lat;lon;timestamp;P1;durP1;ratioP1;P2;durP2;ratioP2
42514;SDS011;28144;49.920;18.730;2023-06-22T00:07:04;9.15;;;3.22;;
42514;SDS011;28144;49.920;18.730;2023-06-22T00:09:30;10.13;;;3.47;;
42514;SDS011;28144;49.920;18.730;2023-06-22T00:11:56;8.65;;;3.88;;
42514;SDS011;28144;49.920;18.730;2023-06-22T00:14:22;8.53;;;4.10;;
42514;SDS011;28144;49.920;18.730;2023-06-22T00:16:48;9.70;;;3.78;;
42514;SDS011;28144;49.920;18.730;2023-06-22T00:19:15;13.70;;;4.38;;
42514;SDS011;28144;49.920;18.730;2023-06-22T00:21:41;9.70;;;3.38;;
42514;SDS011;28144;49.920;18.730;2023-06-22T00:24:08;11.15;;;3.80;;
42514;SDS011;28144;49.920;18.730;2023-06-22T00:26:34;8.23;;;3.75;;
42514;SDS011;28144;49.920;18.730;2023-06-22T00:28:59;13.40;;;3.50;;
42514;SDS011;28144;49.920;18.730;2023-06-22T00:31:25;12.77;;;3.50;;
42514;SDS011;28144;49.920;18.730;2023-06-22T00:33:50;13.23;;;3.67;;
42514;SDS011;28144;49.920;18.730;2023-06-22T00:36:17;8.07;;;3.58;;
42514;SDS011;28144;49.920;18.730;2023-06-22T00:38:44;8.85;;;3.20;;
42514;SDS011;28144;49.920;18.730;2023-06-22T00:41:10;10.77;;;3.83;;
42514;SDS011;28144;49.920;18.730;2023-06-22T00:43:35;18.63;;;3.60;;
42514;SDS011;28144;49.920;18.730;2023-06-22T00:46:01;12.82;;;3.70;;
42514;SDS011;28144;49.920;18.730;2023-06-22T00:48:26;14.13;;;3.97;;
42514;SDS011;28144;49.920;18.730;2023-06-22T00:50:52;11.43;;;3.50;;
42514;SDS011;28144;49.920;18.730;2023-06-22T00:53:20;16.73;;;3.95;;
42514;SDS011;28144;49.920;18.730;2023-06-22T00:55:46;9.32;;;3.10;;
42514;SDS011;28144;49.920;18.730;2023-06-22T00:58:13;15.57;;;3.63;;
42514;SDS011;28144;49.920;18.730;2023-06-22T01:00:39;12.10;;;3.30;;
42514;SDS011;28144;49.920;18.730;2023-06-22T01:03:06;13.77;;;3.17;;
42514;SDS011;28144;49.920;18.730;2023-06-22T01:05:34;13.68;;;3.70;;
42514;SDS011;28144;49.920;18.730;2023-06-22T01:08:21;11.95;;;3.35;;
42514;SDS011;28144;49.920;18.730;2023-06-22T01:19:03;12.20;;;3.33;;
42514;SDS011;28144;49.920;18.730;2023-06-22T01:21:55;16.52;;;4.32;;
42514;SDS011;28144;49.920;18.730;2023-06-22T01:24:30;14.20;;;3.55;;
42514;SDS011;28144;49.920;18.730;2023-06-22T01:30:11;15.40;;;3.50;;
42514;SDS011;28144;49.920;18.730;2023-06-22T01:32:38;13.70;;;3.45;;
42514;SDS011;28144;49.920;18.730;2023-06-22T01:35:05;11.07;;;3.63;;
42514;SDS011;28144;49.920;18.730;2023-06-22T01:37:33;17.10;;;3.72;;
42514;SDS011;28144;49.920;18.730;2023-06-22T01:39:59;11.45;;;3.97;;
42514;SDS011;28144;49.920;18.730;2023-06-22T01:42:26;10.05;;;3.60;;
42514;SDS011;28144;49.920;18.730;2023-06-22T01:44:52;15.95;;;4.13;;
42514;SDS011;28144;49.920;18.730;2023-06-22T01:47:20;16.02;;;4.20;;
42514;SDS011;28144;49.920;18.730;2023-06-22T01:49:46;13.68;;;3.80;;
42514;SDS011;28144;49.920;18.730;2023-06-22T01:52:12;17.05;;;4.43;;
42514;SDS011;28144;49.920;18.730;2023-06-22T01:54:38;14.47;;;4.47;;
42514;SDS011;28144;49.920;18.730;2023-06-22T01:57:05;10.25;;;3.88;;
42514;SDS011;28144;49.920;18.730;2023-06-22T01:59:37;15.23;;;5.47;;
42514;SDS011;28144;49.920;18.730;2023-06-22T02:02:09;18.35;;;4.53;;
42514;SDS011;28144;49.920;18.730;2023-06-22T02:07:09;12.20;;;5.22;;
42514;SDS011;28144;49.920;18.730;2023-06-22T02:09:37;17.42;;;5.13;;
42514;SDS011;28144;49.920;18.730;2023-06-22T02:12:04;16.55;;;6.57;;
42514;SDS011;28144;49.920;18.730;2023-06-22T02:14:30;10.90;;;5.38;;
42514;SDS011;28144;49.920;18.730;2023-06-22T02:16:57;14.80;;;5.57;;
42514;SDS011;28144;49.920;18.730;2023-06-22T02:19:24;13.65;;;6.45;;
42514;SDS011;28144;49.920;18.730;2023-06-22T02:21:51;14.80;;;7.28;;
42514;SDS011;28144;49.920;18.730;2023-06-22T02:24:16;29.73;;;6.60;;
42514;SDS011;28144;49.920;18.730;2023-06-22T02:26:42;16.88;;;6.32;;
42514;SDS011;28144;49.920;18.730;2023-06-22T02:29:10;19.20;;;6.57;;
42514;SDS011;28144;49.920;18.730;2023-06-22T02:31:36;14.98;;;6.28;;
42514;SDS011;28144;49.920;18.730;2023-06-22T02:34:02;18.47;;;6.40;;
42514;SDS011;28144;49.920;18.730;2023-06-22T02:36:27;13.25;;;6.00;;
42514;SDS011;28144;49.920;18.730;2023-06-22T02:38:55;15.90;;;6.03;;
42514;SDS011;28144;49.920;18.730;2023-06-22T02:41:26;12.40;;;4.93;;
42514;SDS011;28144;49.920;18.730;2023-06-22T02:43:52;16.13;;;5.05;;
42514;SDS011;28144;49.920;18.730;2023-06-22T02:46:18;16.85;;;4.95;;
42514;SDS011;28144;49.920;18.730;2023-06-22T02:48:44;13.52;;;4.90;;
42514;SDS011;28144;49.920;18.730;2023-06-22T02:51:09;14.40;;;4.50;;
42514;SDS011;28144;49.920;18.730;2023-06-22T02:53:35;10.50;;;5.13;;
42514;SDS011;28144;49.920;18.730;2023-06-22T02:56:04;13.20;;;4.55;;
42514;SDS011;28144;49.920;18.730;2023-06-22T02:58:32;13.90;;;4.38;;
42514;SDS011;28144;49.920;18.730;2023-06-22T03:01:06;10.55;;;4.40;;
42514;SDS011;28144;49.920;18.730;2023-06-22T03:03:32;10.65;;;4.63;;
42514;SDS011;28144;49.920;18.730;2023-06-22T03:05:58;13.63;;;4.63;;
42514;SDS011;28144;49.920;18.730;2023-06-22T03:08:26;20.42;;;4.50;;
42514;SDS011;28144;49.920;18.730;2023-06-22T03:10:51;10.57;;;4.13;;
42514;SDS011;28144;49.920;18.730;2023-06-22T03:13:17;15.50;;;4.50;;
42514;SDS011;28144;49.920;18.730;2023-06-22T03:15:43;16.17;;;4.30;;
42514;SDS011;28144;49.920;18.730;2023-06-22T03:18:08;16.53;;;4.77;;
42514;SDS011;28144;49.920;18.730;2023-06-22T03:20:34;12.57;;;4.45;;
42514;SDS011;28144;49.920;18.730;2023-06-22T03:23:00;16.83;;;5.47;;
42514;SDS011;28144;49.920;18.730;2023-06-22T03:25:26;16.70;;;5.00;;
42514;SDS011;28144;49.920;18.730;2023-06-22T03:27:51;16.27;;;4.97;;
42514;SDS011;28144;49.920;18.730;2023-06-22T03:30:17;20.48;;;5.28;;
42514;SDS011;28144;49.920;18.730;2023-06-22T03:32:42;10.95;;;4.13;;
42514;SDS011;28144;49.920;18.730;2023-06-22T03:35:09;12.00;;;4.45;;
42514;SDS011;28144;49.920;18.730;2023-06-22T03:37:35;13.60;;;4.47;;
42514;SDS011;28144;49.920;18.730;2023-06-22T03:40:01;10.73;;;4.30;;
42514;SDS011;28144;49.920;18.730;2023-06-22T03:42:30;12.88;;;3.97;;
42514;SDS011;28144;49.920;18.730;2023-06-22T03:44:56;12.02;;;4.20;;
42514;SDS011;28144;49.920;18.730;2023-06-22T03:47:22;10.90;;;4.43;;
42514;SDS011;28144;49.920;18.730;2023-06-22T03:49:48;8.20;;;4.38;;
42514;SDS011;28144;49.920;18.730;2023-06-22T03:52:13;17.17;;;5.50;;
42514;SDS011;28144;49.920;18.730;2023-06-22T03:54:39;11.63;;;4.75;;
42514;SDS011;28144;49.920;18.730;2023-06-22T03:57:05;8.13;;;4.07;;
42514;SDS011;28144;49.920;18.730;2023-06-22T04:01:57;12.13;;;4.50;;
42514;SDS011;28144;49.920;18.730;2023-06-22T04:04:23;13.77;;;4.13;;
42514;SDS011;28144;49.920;18.730;2023-06-22T04:06:49;13.00;;;5.07;;
42514;SDS011;28144;49.920;18.730;2023-06-22T04:09:14;11.43;;;4.75;;
42514;SDS011;28144;49.920;18.730;2023-06-22T04:11:40;14.60;;;4.70;;
42514;SDS011;28144;49.920;18.730;2023-06-22T04:14:06;11.18;;;4.30;;
42514;SDS011;28144;49.920;18.730;2023-06-22T04:16:31;14.60;;;4.50;;
42514;SDS011;28144;49.920;18.730;2023-06-22T04:18:57;12.05;;;5.07;;
42514;SDS011;28144;49.920;18.730;2023-06-22T04:21:23;18.10;;;4.80;;
42514;SDS011;28144;49.920;18.730;2023-06-22T04:23:48;11.95;;;4.45;;
42514;SDS011;28144;49.920;18.730;2023-06-22T04:26:14;19.10;;;5.13;;
42514;SDS011;28144;49.920;18.730;2023-06-22T04:28:40;11.05;;;4.50;;
42514;SDS011;28144;49.920;18.730;2023-06-22T04:31:06;12.85;;;4.50;;
42514;SDS011;28144;49.920;18.730;2023-06-22T04:33:32;13.90;;;4.55;;
42514;SDS011;28144;49.920;18.730;2023-06-22T04:35:58;10.00;;;4.07;;
42514;SDS011;28144;49.920;18.730;2023-06-22T04:38:26;10.93;;;3.88;;
42514;SDS011;28144;49.920;18.730;2023-06-22T04:40:52;16.42;;;4.25;;
42514;SDS011;28144;49.920;18.730;2023-06-22T04:48:10;8.65;;;3.70;;
42514;SDS011;28144;49.920;18.730;2023-06-22T04:50:41;10.98;;;4.75;;
42514;SDS011;28144;49.920;18.730;2023-06-22T04:53:07;16.38;;;3.75;;
42514;SDS011;28144;49.920;18.730;2023-06-22T04:55:34;11.65;;;5.10;;
42514;SDS011;28144;49.920;18.730;2023-06-22T04:58:03;18.77;;;4.85;;
42514;SDS011;28144;49.920;18.730;2023-06-22T05:00:30;14.52;;;4.07;;
42514;SDS011;28144;49.920;18.730;2023-06-22T05:02:56;17.05;;;4.97;;
42514;SDS011;28144;49.920;18.730;2023-06-22T05:05:23;14.60;;;5.22;;
42514;SDS011;28144;49.920;18.730;2023-06-22T05:10:18;13.57;;;5.07;;
42514;SDS011;28144;49.920;18.730;2023-06-22T05:12:45;17.75;;;5.30;;
42514;SDS011;28144;49.920;18.730;2023-06-22T05:15:11;14.35;;;5.43;;
42514;SDS011;28144;49.920;18.730;2023-06-22T05:17:37;12.98;;;5.30;;
42514;SDS011;28144;49.920;18.730;2023-06-22T05:20:11;16.20;;;6.05;;
42514;SDS011;28144;49.920;18.730;2023-06-22T05:22:38;18.73;;;6.15;;
42514;SDS011;28144;49.920;18.730;2023-06-22T05:27:31;13.35;;;6.28;;
42514;SDS011;28144;49.920;18.730;2023-06-22T05:29:57;15.75;;;5.97;;
42514;SDS011;28144;49.920;18.730;2023-06-22T05:32:23;16.52;;;7.25;;
42514;SDS011;28144;49.920;18.730;2023-06-22T05:34:48;13.48;;;6.28;;
42514;SDS011;28144;49.920;18.730;2023-06-22T05:37:14;22.67;;;7.20;;
42514;SDS011;28144;49.920;18.730;2023-06-22T05:39:39;14.20;;;6.75;;
42514;SDS011;28144;49.920;18.730;2023-06-22T05:42:05;19.33;;;7.90;;
42514;SDS011;28144;49.920;18.730;2023-06-22T05:46:58;22.42;;;8.23;;
42514;SDS011;28144;49.920;18.730;2023-06-22T05:49:24;19.58;;;8.18;;
42514;SDS011;28144;49.920;18.730;2023-06-22T05:51:55;19.48;;;9.30;;
42514;SDS011;28144;49.920;18.730;2023-06-22T05:54:22;19.88;;;8.77;;
42514;SDS011;28144;49.920;18.730;2023-06-22T05:56:47;17.27;;;9.45;;
42514;SDS011;28144;49.920;18.730;2023-06-22T05:59:13;27.90;;;10.00;;
42514;SDS011;28144;49.920;18.730;2023-06-22T06:01:41;22.35;;;10.23;;
42514;SDS011;28144;49.920;18.730;2023-06-22T06:04:07;16.25;;;9.35;;
42514;SDS011;28144;49.920;18.730;2023-06-22T06:06:35;27.50;;;10.35;;
42514;SDS011;28144;49.920;18.730;2023-06-22T06:09:03;29.60;;;10.98;;
42514;SDS011;28144;49.920;18.730;2023-06-22T06:11:29;21.63;;;10.63;;
42514;SDS011;28144;49.920;18.730;2023-06-22T06:13:55;17.10;;;11.27;;
42514;SDS011;28144;49.920;18.730;2023-06-22T06:16:21;20.52;;;11.70;;
42514;SDS011;28144;49.920;18.730;2023-06-22T06:18:47;22.80;;;11.38;;
42514;SDS011;28144;49.920;18.730;2023-06-22T06:21:15;19.30;;;12.10;;
42514;SDS011;28144;49.920;18.730;2023-06-22T06:23:40;23.00;;;12.05;;
42514;SDS011;28144;49.920;18.730;2023-06-22T06:26:06;21.00;;;10.75;;
42514;SDS011;28144;49.920;18.730;2023-06-22T06:28:32;19.92;;;9.32;;
42514;SDS011;28144;49.920;18.730;2023-06-22T06:30:59;20.85;;;11.43;;
42514;SDS011;28144;49.920;18.730;2023-06-22T06:33:24;26.83;;;12.80;;
42514;SDS011;28144;49.920;18.730;2023-06-22T06:35:50;22.27;;;11.93;;
42514;SDS011;28144;49.920;18.730;2023-06-22T06:38:16;19.83;;;12.50;;
42514;SDS011;28144;49.920;18.730;2023-06-22T06:40:42;24.45;;;13.20;;
42514;SDS011;28144;49.920;18.730;2023-06-22T06:43:08;21.77;;;12.70;;
42514;SDS011;28144;49.920;18.730;2023-06-22T06:45:33;30.08;;;13.35;;
42514;SDS011;28144;49.920;18.730;2023-06-22T06:47:59;22.23;;;13.10;;
42514;SDS011;28144;49.920;18.730;2023-06-22T06:50:25;23.63;;;12.77;;
42514;SDS011;28144;49.920;18.730;2023-06-22T06:52:51;26.75;;;14.93;;
42514;SDS011;28144;49.920;18.730;2023-06-22T06:55:17;21.60;;;13.85;;
42514;SDS011;28144;49.920;18.730;2023-06-22T06:57:44;23.75;;;13.95;;
42514;SDS011;28144;49.920;18.730;2023-06-22T07:00:13;22.55;;;14.48;;
42514;SDS011;28144;49.920;18.730;2023-06-22T07:02:41;25.23;;;15.43;;
42514;SDS011;28144;49.920;18.730;2023-06-22T07:05:11;23.20;;;14.57;;
42514;SDS011;28144;49.920;18.730;2023-06-22T07:07:37;23.80;;;14.20;;
42514;SDS011;28144;49.920;18.730;2023-06-22T07:10:03;26.70;;;15.05;;
42514;SDS011;28144;49.920;18.730;2023-06-22T07:12:30;26.00;;;14.30;;
42514;SDS011;28144;49.920;18.730;2023-06-22T07:15:06;25.88;;;14.55;;
42514;SDS011;28144;49.920;18.730;2023-06-22T07:17:37;27.80;;;14.85;;
42514;SDS011;28144;49.920;18.730;2023-06-22T07:20:06;26.35;;;15.35;;
42514;SDS011;28144;49.920;18.730;2023-06-22T07:22:38;25.00;;;15.27;;
42514;SDS011;28144;49.920;18.730;2023-06-22T07:25:05;24.65;;;16.65;;
42514;SDS011;28144;49.920;18.730;2023-06-22T07:27:43;19.70;;;12.73;;
42514;SDS011;28144;49.920;18.730;2023-06-22T07:30:31;23.88;;;15.40;;
42514;SDS011;28144;49.920;18.730;2023-06-22T07:32:57;23.60;;;15.77;;
42514;SDS011;28144;49.920;18.730;2023-06-22T07:35:24;22.85;;;14.55;;
42514;SDS011;28144;49.920;18.730;2023-06-22T07:40:15;18.90;;;12.60;;
42514;SDS011;28144;49.920;18.730;2023-06-22T07:42:41;28.45;;;17.02;;
42514;SDS011;28144;49.920;18.730;2023-06-22T07:47:33;23.70;;;15.68;;
42514;SDS011;28144;49.920;18.730;2023-06-22T07:50:01;21.60;;;14.95;;
42514;SDS011;28144;49.920;18.730;2023-06-22T07:52:28;28.77;;;16.55;;
42514;SDS011;28144;49.920;18.730;2023-06-22T07:54:54;22.42;;;16.02;;
42514;SDS011;28144;49.920;18.730;2023-06-22T07:57:20;28.02;;;18.23;;
42514;SDS011;28144;49.920;18.730;2023-06-22T07:59:46;24.80;;;16.75;;
42514;SDS011;28144;49.920;18.730;2023-06-22T08:02:12;21.13;;;14.95;;
42514;SDS011;28144;49.920;18.730;2023-06-22T08:04:38;22.23;;;15.38;;
42514;SDS011;28144;49.920;18.730;2023-06-22T08:09:31;19.92;;;15.27;;
42514;SDS011;28144;49.920;18.730;2023-06-22T08:12:00;24.35;;;16.23;;
42514;SDS011;28144;49.920;18.730;2023-06-22T08:14:26;21.75;;;15.90;;
42514;SDS011;28144;49.920;18.730;2023-06-22T08:19:18;23.20;;;16.77;;
42514;SDS011;28144;49.920;18.730;2023-06-22T08:21:43;22.67;;;16.52;;
42514;SDS011;28144;49.920;18.730;2023-06-22T08:26:35;18.17;;;15.13;;
42514;SDS011;28144;49.920;18.730;2023-06-22T08:29:03;27.05;;;16.73;;
42514;SDS011;28144;49.920;18.730;2023-06-22T08:31:29;23.90;;;15.63;;
42514;SDS011;28144;49.920;18.730;2023-06-22T08:33:56;23.60;;;16.30;;
42514;SDS011;28144;49.920;18.730;2023-06-22T08:36:21;28.50;;;17.48;;
42514;SDS011;28144;49.920;18.730;2023-06-22T08:41:16;27.83;;;17.92;;
42514;SDS011;28144;49.920;18.730;2023-06-22T08:43:43;21.77;;;16.88;;
42514;SDS011;28144;49.920;18.730;2023-06-22T08:46:12;21.98;;;15.70;;
42514;SDS011;28144;49.920;18.730;2023-06-22T08:51:04;23.38;;;19.60;;
42514;SDS011;28144;49.920;18.730;2023-06-22T08:53:30;27.08;;;18.77;;
42514;SDS011;28144;49.920;18.730;2023-06-22T08:58:21;22.38;;;16.88;;
42514;SDS011;28144;49.920;18.730;2023-06-22T09:00:47;20.73;;;15.20;;
42514;SDS011;28144;49.920;18.730;2023-06-22T09:03:14;22.52;;;14.70;;
42514;SDS011;28144;49.920;18.730;2023-06-22T09:05:40;18.33;;;15.27;;
42514;SDS011;28144;49.920;18.730;2023-06-22T09:08:06;20.40;;;15.25;;
42514;SDS011;28144;49.920;18.730;2023-06-22T09:12:58;22.92;;;16.73;;
42514;SDS011;28144;49.920;18.730;2023-06-22T09:20:14;24.08;;;17.08;;
42514;SDS011;28144;49.920;18.730;2023-06-22T09:22:41;24.98;;;19.17;;
42514;SDS011;28144;49.920;18.730;2023-06-22T09:27:33;22.10;;;15.88;;
42514;SDS011;28144;49.920;18.730;2023-06-22T09:34:50;22.45;;;16.60;;
42514;SDS011;28144;49.920;18.730;2023-06-22T09:39:43;22.15;;;16.25;;
42514;SDS011;28144;49.920;18.730;2023-06-22T09:44:34;23.48;;;14.88;;
42514;SDS011;28144;49.920;18.730;2023-06-22T09:49:26;16.92;;;14.55;;
42514;SDS011;28144;49.920;18.730;2023-06-22T09:54:17;18.77;;;14.45;;
42514;SDS011;28144;49.920;18.730;2023-06-22T09:59:09;21.75;;;16.10;;
42514;SDS011;28144;49.920;18.730;2023-06-22T10:04:01;19.77;;;14.75;;
42514;SDS011;28144;49.920;18.730;2023-06-22T10:06:27;20.45;;;15.57;;
42514;SDS011;28144;49.920;18.730;2023-06-22T10:11:19;17.45;;;15.05;;
42514;SDS011;28144;49.920;18.730;2023-06-22T10:13:44;17.30;;;15.18;;
42514;SDS011;28144;49.920;18.730;2023-06-22T10:18:36;17.58;;;14.32;;
42514;SDS011;28144;49.920;18.730;2023-06-22T10:23:30;17.80;;;14.32;;
42514;SDS011;28144;49.920;18.730;2023-06-22T10:25:57;19.65;;;15.32;;
42514;SDS011;28144;49.920;18.730;2023-06-22T10:28:23;19.88;;;14.65;;
42514;SDS011;28144;49.920;18.730;2023-06-22T10:33:14;19.52;;;14.45;;
42514;SDS011;28144;49.920;18.730;2023-06-22T10:38:05;17.52;;;14.40;;
42514;SDS011;28144;49.920;18.730;2023-06-22T10:40:32;19.08;;;13.55;;
42514;SDS011;28144;49.920;18.730;2023-06-22T10:47:48;21.00;;;15.90;;
42514;SDS011;28144;49.920;18.730;2023-06-22T10:52:40;23.70;;;16.02;;
42514;SDS011;28144;49.920;18.730;2023-06-22T10:55:08;22.02;;;14.75;;
42514;SDS011;28144;49.920;18.730;2023-06-22T10:57:34;20.40;;;14.07;;
42514;SDS011;28144;49.920;18.730;2023-06-22T11:02:25;22.52;;;16.80;;
42514;SDS011;28144;49.920;18.730;2023-06-22T11:04:53;16.55;;;14.75;;
42514;SDS011;28144;49.920;18.730;2023-06-22T11:09:45;17.73;;;14.63;;
42514;SDS011;28144;49.920;18.730;2023-06-22T11:14:36;19.15;;;15.05;;
42514;SDS011;28144;49.920;18.730;2023-06-22T11:21:53;19.35;;;13.68;;
42514;SDS011;28144;49.920;18.730;2023-06-22T11:26:44;18.58;;;14.25;;
42514;SDS011;28144;49.920;18.730;2023-06-22T11:31:35;14.82;;;13.02;;
42514;SDS011;28144;49.920;18.730;2023-06-22T11:36:27;15.13;;;11.95;;
42514;SDS011;28144;49.920;18.730;2023-06-22T11:38:54;15.05;;;12.35;;
42514;SDS011;28144;49.920;18.730;2023-06-22T11:43:45;14.85;;;12.68;;
42514;SDS011;28144;49.920;18.730;2023-06-22T11:48:36;14.52;;;13.13;;
42514;SDS011;28144;49.920;18.730;2023-06-22T11:51:03;14.77;;;12.55;;
42514;SDS011;28144;49.920;18.730;2023-06-22T11:55:54;16.73;;;13.50;;
42514;SDS011;28144;49.920;18.730;2023-06-22T12:00:46;16.65;;;13.10;;
42514;SDS011;28144;49.920;18.730;2023-06-22T12:05:38;14.77;;;11.90;;
42514;SDS011;28144;49.920;18.730;2023-06-22T12:10:29;12.73;;;11.43;;
42514;SDS011;28144;49.920;18.730;2023-06-22T12:15:22;15.25;;;11.02;;
42514;SDS011;28144;49.920;18.730;2023-06-22T12:20:14;14.52;;;11.15;;
42514;SDS011;28144;49.920;18.730;2023-06-22T12:22:40;11.27;;;10.15;;
42514;SDS011;28144;49.920;18.730;2023-06-22T12:25:07;11.85;;;10.60;;
42514;SDS011;28144;49.920;18.730;2023-06-22T12:27:33;12.23;;;9.88;;
42514;SDS011;28144;49.920;18.730;2023-06-22T12:30:00;12.13;;;10.18;;
42514;SDS011;28144;49.920;18.730;2023-06-22T12:32:26;11.98;;;10.38;;
42514;SDS011;28144;49.920;18.730;2023-06-22T12:37:17;13.27;;;9.38;;
42514;SDS011;28144;49.920;18.730;2023-06-22T12:39:43;13.00;;;9.98;;
42514;SDS011;28144;49.920;18.730;2023-06-22T12:42:10;11.50;;;9.48;;
42514;SDS011;28144;49.920;18.730;2023-06-22T12:44:37;11.65;;;10.45;;
42514;SDS011;28144;49.920;18.730;2023-06-22T12:47:03;11.52;;;8.80;;
42514;SDS011;28144;49.920;18.730;2023-06-22T12:49:29;10.98;;;9.02;;
42514;SDS011;28144;49.920;18.730;2023-06-22T12:54:21;12.93;;;10.55;;
42514;SDS011;28144;49.920;18.730;2023-06-22T12:59:12;17.60;;;11.93;;
42514;SDS011;28144;49.920;18.730;2023-06-22T13:01:39;13.07;;;10.40;;
42514;SDS011;28144;49.920;18.730;2023-06-22T13:06:31;13.43;;;12.02;;
42514;SDS011;28144;49.920;18.730;2023-06-22T13:11:22;11.85;;;10.30;;
42514;SDS011;28144;49.920;18.730;2023-06-22T13:16:13;16.08;;;10.60;;
42514;SDS011;28144;49.920;18.730;2023-06-22T13:18:39;16.08;;;10.75;;
42514;SDS011;28144;49.920;18.730;2023-06-22T13:23:31;11.68;;;9.88;;
42514;SDS011;28144;49.920;18.730;2023-06-22T13:25:57;11.88;;;9.73;;
42514;SDS011;28144;49.920;18.730;2023-06-22T13:28:23;11.35;;;9.55;;
42514;SDS011;28144;49.920;18.730;2023-06-22T13:33:15;9.48;;;8.55;;
42514;SDS011;28144;49.920;18.730;2023-06-22T13:35:40;13.38;;;9.07;;
42514;SDS011;28144;49.920;18.730;2023-06-22T13:38:09;9.90;;;8.80;;
42514;SDS011;28144;49.920;18.730;2023-06-22T13:43:01;10.55;;;8.60;;
42514;SDS011;28144;49.920;18.730;2023-06-22T13:45:26;14.65;;;8.88;;
42514;SDS011;28144;49.920;18.730;2023-06-22T13:47:52;10.15;;;8.98;;
42514;SDS011;28144;49.920;18.730;2023-06-22T13:50:18;11.35;;;8.77;;
42514;SDS011;28144;49.920;18.730;2023-06-22T13:52:44;11.23;;;8.38;;
42514;SDS011;28144;49.920;18.730;2023-06-22T13:55:09;10.93;;;8.32;;
42514;SDS011;28144;49.920;18.730;2023-06-22T13:57:35;10.18;;;8.50;;
42514;SDS011;28144;49.920;18.730;2023-06-22T14:00:03;9.23;;;8.10;;
42514;SDS011;28144;49.920;18.730;2023-06-22T14:02:30;10.15;;;8.73;;
42514;SDS011;28144;49.920;18.730;2023-06-22T14:07:22;12.70;;;8.40;;
42514;SDS011;28144;49.920;18.730;2023-06-22T14:09:49;13.60;;;8.93;;
42514;SDS011;28144;49.920;18.730;2023-06-22T14:12:15;11.77;;;8.48;;
42514;SDS011;28144;49.920;18.730;2023-06-22T14:14:42;16.38;;;8.50;;
42514;SDS011;28144;49.920;18.730;2023-06-22T14:17:09;10.40;;;8.10;;
42514;SDS011;28144;49.920;18.730;2023-06-22T14:19:35;15.57;;;8.40;;
42514;SDS011;28144;49.920;18.730;2023-06-22T14:24:26;10.60;;;8.38;;
42514;SDS011;28144;49.920;18.730;2023-06-22T14:26:53;11.95;;;9.48;;
42514;SDS011;28144;49.920;18.730;2023-06-22T14:29:19;9.23;;;8.32;;
42514;SDS011;28144;49.920;18.730;2023-06-22T14:31:46;11.70;;;8.85;;
42514;SDS011;28144;49.920;18.730;2023-06-22T14:36:41;15.10;;;8.60;;
42514;SDS011;28144;49.920;18.730;2023-06-22T14:39:08;11.15;;;8.75;;
42514;SDS011;28144;49.920;18.730;2023-06-22T14:41:34;13.50;;;8.82;;
42514;SDS011;28144;49.920;18.730;2023-06-22T14:46:25;10.02;;;8.95;;
42514;SDS011;28144;49.920;18.730;2023-06-22T14:48:51;10.95;;;9.18;;
42514;SDS011;28144;49.920;18.730;2023-06-22T14:51:16;9.60;;;8.68;;
42514;SDS011;28144;49.920;18.730;2023-06-22T14:53:43;13.77;;;7.88;;
42514;SDS011;28144;49.920;18.730;2023-06-22T14:56:09;9.18;;;7.93;;
42514;SDS011;28144;49.920;18.730;2023-06-22T15:01:03;11.43;;;7.45;;
42514;SDS011;28144;49.920;18.730;2023-06-22T15:06:01;10.90;;;7.70;;
42514;SDS011;28144;49.920;18.730;2023-06-22T15:08:28;8.30;;;7.50;;
42514;SDS011;28144;49.920;18.730;2023-06-22T15:10:54;9.85;;;8.10;;
42514;SDS011;28144;49.920;18.730;2023-06-22T15:13:20;9.20;;;7.43;;
42514;SDS011;28144;49.920;18.730;2023-06-22T15:15:50;13.00;;;7.60;;
42514;SDS011;28144;49.920;18.730;2023-06-22T15:20:42;11.23;;;8.05;;
42514;SDS011;28144;49.920;18.730;2023-06-22T15:23:12;9.80;;;8.32;;
42514;SDS011;28144;49.920;18.730;2023-06-22T15:28:04;10.75;;;8.63;;
42514;SDS011;28144;49.920;18.730;2023-06-22T15:32:58;10.25;;;8.63;;
42514;SDS011;28144;49.920;18.730;2023-06-22T15:37:49;9.77;;;8.05;;
42514;SDS011;28144;49.920;18.730;2023-06-22T15:40:16;9.25;;;8.35;;
42514;SDS011;28144;49.920;18.730;2023-06-22T15:45:09;12.27;;;8.82;;
42514;SDS011;28144;49.920;18.730;2023-06-22T15:50:00;10.45;;;8.73;;
42514;SDS011;28144;49.920;18.730;2023-06-22T15:54:51;13.07;;;8.63;;
42514;SDS011;28144;49.920;18.730;2023-06-22T15:57:19;14.45;;;8.52;;
42514;SDS011;28144;49.920;18.730;2023-06-22T15:59:45;12.45;;;8.73;;
42514;SDS011;28144;49.920;18.730;2023-06-22T16:04:36;11.73;;;8.82;;
42514;SDS011;28144;49.920;18.730;2023-06-22T16:09:28;12.65;;;9.00;;
42514;SDS011;28144;49.920;18.730;2023-06-22T16:11:55;9.52;;;8.43;;
42514;SDS011;28144;49.920;18.730;2023-06-22T16:14:21;11.40;;;8.82;;
42514;SDS011;28144;49.920;18.730;2023-06-22T16:19:13;15.55;;;9.02;;
42514;SDS011;28144;49.920;18.730;2023-06-22T16:24:04;11.80;;;8.27;;
42514;SDS011;28144;49.920;18.730;2023-06-22T16:28:55;8.70;;;7.82;;
42514;SDS011;28144;49.920;18.730;2023-06-22T16:33:47;13.13;;;8.63;;
42514;SDS011;28144;49.920;18.730;2023-06-22T16:36:14;12.65;;;8.68;;
42514;SDS011;28144;49.920;18.730;2023-06-22T16:38:41;12.10;;;8.82;;
42514;SDS011;28144;49.920;18.730;2023-06-22T16:41:08;12.32;;;8.23;;
42514;SDS011;28144;49.920;18.730;2023-06-22T16:43:38;10.18;;;9.00;;
42514;SDS011;28144;49.920;18.730;2023-06-22T16:46:06;17.00;;;9.43;;
42514;SDS011;28144;49.920;18.730;2023-06-22T16:48:33;23.25;;;10.55;;
42514;SDS011;28144;49.920;18.730;2023-06-22T16:53:24;11.75;;;9.18;;
42514;SDS011;28144;49.920;18.730;2023-06-22T17:00:43;13.70;;;8.88;;
42514;SDS011;28144;49.920;18.730;2023-06-22T17:03:12;10.77;;;8.73;;
42514;SDS011;28144;49.920;18.730;2023-06-22T17:05:42;18.23;;;9.35;;
42514;SDS011;28144;49.920;18.730;2023-06-22T17:08:08;11.20;;;8.85;;
42514;SDS011;28144;49.920;18.730;2023-06-22T17:10:38;11.73;;;9.00;;
42514;SDS011;28144;49.920;18.730;2023-06-22T17:13:05;13.18;;;8.93;;
42514;SDS011;28144;49.920;18.730;2023-06-22T17:17:57;13.60;;;8.85;;
42514;SDS011;28144;49.920;18.730;2023-06-22T17:22:48;15.77;;;8.43;;
42514;SDS011;28144;49.920;18.730;2023-06-22T17:30:09;12.95;;;8.65;;
42514;SDS011;28144;49.920;18.730;2023-06-22T17:32:36;10.25;;;9.25;;
42514;SDS011;28144;49.920;18.730;2023-06-22T17:37:35;16.63;;;8.55;;
42514;SDS011;28144;49.920;18.730;2023-06-22T17:40:16;15.45;;;9.00;;
42514;SDS011;28144;49.920;18.730;2023-06-22T17:42:43;16.15;;;8.73;;
42514;SDS011;28144;49.920;18.730;2023-06-22T17:47:48;11.68;;;8.38;;
42514;SDS011;28144;49.920;18.730;2023-06-22T17:50:14;23.02;;;9.65;;
42514;SDS011;28144;49.920;18.730;2023-06-22T17:52:41;15.43;;;9.48;;
42514;SDS011;28144;49.920;18.730;2023-06-22T18:00:05;23.05;;;9.38;;
42514;SDS011;28144;49.920;18.730;2023-06-22T18:02:41;19.20;;;9.68;;
42514;SDS011;28144;49.920;18.730;2023-06-22T18:05:11;26.75;;;9.68;;
42514;SDS011;28144;49.920;18.730;2023-06-22T18:07:37;29.92;;;11.20;;
42514;SDS011;28144;49.920;18.730;2023-06-22T18:12:36;16.17;;;9.50;;
42514;SDS011;28144;49.920;18.730;2023-06-22T18:15:04;17.23;;;9.38;;